METAR Data
IDs: Format: Raw Decoded Include TAF

Data at: 2057 UTC 17 Nov 2019

KIRK 172055Z AUTO 32007KT 10SM BKN015 BKN034 OVC050 07/03 A2991 RMK AO2 SLP138 60000 T00670033 55003
KIRK 172017Z AUTO 32011KT 10SM FEW024 BKN035 OVC043 07/03 A2990 RMK AO2 T00720033
KIRK 172006Z AUTO 32010G18KT 10SM SCT024 BKN029 OVC043 07/03 A2990 RMK AO2 T00720028
KIRK 171955Z AUTO 31010KT 10SM SCT028 OVC038 08/02 A2990 RMK AO2 SLP133 T00780022
KIRK 171855Z AUTO 30006KT 10SM OVC055 07/03 A2990 RMK AO2 RAB41E53 SLP134 P0000 T00720033
KIRK 171755Z AUTO 24004KT 10SM OVC070 07/03 A2992 RMK AO2 SLP142 60001 T00670028 10067 20044 58009
KIRK 171655Z AUTO 22004KT 10SM BKN065 OVC080 06/02 A2993 RMK AO2 RAB06E16 SLP144 P0000 T00560022
KIRK 171555Z AUTO 10SM FEW050 FEW080 OVC095 06/02 A2995 RMK AO2 RAE11 SLP150 P0001 T00560017
KIRK 171455Z AUTO 20005KT 10SM -RA OVC065 06/02 A2995 RMK AO2 RAB48 SLP150 P0000 60000 T00560017 55009
KIRK 171355Z AUTO 19006KT 10SM OVC080 04/02 A2994 RMK AO2 SLP148 T00440017
KIRK 171255Z AUTO 18006KT 10SM OVC110 04/01 A2996 RMK AO2 SLP156 T00440006
KIRK 171155Z AUTO 20005KT 10SM OVC090 04/00 A2997 RMK AO2 SLP160 T00440000 10044 20000 56019
KIRK 171055Z AUTO 16006KT 7SM BKN110 03/01 A2999 RMK AO2 SLP163 T00280006
KIRK 170955Z AUTO 17007KT 6SM BR BKN110 02/01 A3001 RMK AO2 SLP170 T00220006
KIRK 170855Z AUTO 16008KT 6SM BR CLR 02/01 A3003 RMK AO2 SLP179 T00220006 57022
KIRK 170755Z AUTO 16007KT 6SM BR CLR 02/00 A3006 RMK AO2 SLP186 T00220000
KIRK 170655Z AUTO 15010KT 6SM BR CLR 02/00 A3008 RMK AO2 SLP193 T00220000
KIRK 170555Z AUTO 16006KT 6SM BR CLR 00/M01 A3010 RMK AO2 SLP202 T00001011 10039 20000 401061033 58004
KIRK 170455Z AUTO 14008KT 7SM CLR 02/00 A3010 RMK AO2 SLP203 T00220000
KIRK 170355Z AUTO 14009KT 9SM CLR 03/01 A3011 RMK AO2 SLP206 T00330006
KIRK 170255Z AUTO 13007KT 9SM CLR 02/00 A3011 RMK AO2 SLP208 T00220000 57002
KIRK 170155Z AUTO 12006KT 10SM CLR 03/00 A3011 RMK AO2 SLP209 T00280000
KIRK 170055Z AUTO 13005KT 10SM CLR 03/00 A3011 RMK AO2 SLP210 T00280000
KIRK 162355Z AUTO 12005KT 10SM CLR 04/00 A3012 RMK AO2 SLP210 T00390000 10106 20039 56011
KIRK 162255Z AUTO 12009KT 10SM CLR 06/01 A3012 RMK AO2 SLP212 T00610011
KIRK 162155Z AUTO 14008KT 10SM CLR 08/01 A3014 RMK AO2 SLP217 T00830011
KIRK 162055Z AUTO 15011KT 10SM CLR 10/01 A3015 RMK AO2 SLP220 T01000011 56030
KIRK 161955Z AUTO 14012KT 10SM CLR 10/01 A3018 RMK AO2 SLP228 T01000006
KIRK 161855Z AUTO 17008KT 10SM CLR 09/01 A3021 RMK AO2 SLP240 T00940006
KIRK 161755Z AUTO 16012KT 10SM CLR 09/01 A3024 RMK AO2 SLP251 T00890006 10089 21022 58024
KIRK 161655Z AUTO 15012KT 10SM CLR 07/M01 A3029 RMK AO2 SLP265 T00721006
KIRK 161555Z AUTO 16011KT 10SM CLR 05/M02 A3031 RMK AO2 SLP274 T00501017
KIRK 161455Z AUTO 15008KT 10SM CLR 02/M03 A3032 RMK AO2 SLP278 T00221028 53001
KIRK 161355Z AUTO 12007KT 10SM CLR M01/M04 A3031 RMK AO2 SLP277 T10061044
KIRK 161255Z AUTO 13006KT 10SM CLR M02/M06 A3031 RMK AO2 SLP277 T10221056
KIRK 161155Z AUTO 11007KT 10SM CLR M02/M06 A3031 RMK AO2 SLP278 T10171061 10011 21033 56001
KIRK 161055Z AUTO 12006KT 10SM CLR M02/M07 A3032 RMK AO2 SLP277 T10171067
KIRK 160955Z AUTO 11005KT 10SM CLR M01/M06 A3031 RMK AO2 SLP275 T10111061